createdAt,value
2023-02-07T05:00:21.199Z,1.58
2023-02-07T05:02:47.872Z,1.88
2023-02-07T05:05:14.509Z,1.60
2023-02-07T05:07:41.216Z,1.77
2023-02-07T05:10:08.067Z,1.52
2023-02-07T05:12:35.251Z,2.00
2023-02-07T05:15:02.815Z,1.70
2023-02-07T05:17:30.635Z,1.67
2023-02-07T05:19:57.313Z,1.95
2023-02-07T05:22:24.046Z,1.88
2023-02-07T05:24:50.697Z,1.50
2023-02-07T05:27:17.426Z,1.83
2023-02-07T05:29:44.013Z,1.83
2023-02-07T05:32:31.253Z,1.65
2023-02-07T05:34:57.825Z,1.83
2023-02-07T05:37:24.521Z,1.83
2023-02-07T05:39:51.148Z,2.00
2023-02-07T05:42:17.831Z,1.88
2023-02-07T05:44:45.121Z,1.80
2023-02-07T05:47:12.338Z,1.80
2023-02-07T05:49:39.392Z,1.80
2023-02-07T05:52:06.024Z,3.40
2023-02-07T05:54:32.698Z,4.63
2023-02-07T05:56:59.351Z,4.35
2023-02-07T05:59:26.053Z,3.80
2023-02-07T06:01:52.777Z,3.60
2023-02-07T06:04:19.459Z,2.95
2023-02-07T06:06:46.203Z,3.40
2023-02-07T06:09:12.945Z,2.95
2023-02-07T06:11:39.638Z,2.70
2023-02-07T06:14:06.317Z,2.65
2023-02-07T06:16:32.950Z,2.97
2023-02-07T06:18:59.652Z,2.60
2023-02-07T06:21:34.654Z,2.63
2023-02-07T06:24:08.193Z,2.97
2023-02-07T06:26:35.061Z,2.75
2023-02-07T06:29:01.671Z,2.60
2023-02-07T06:31:30.633Z,2.65
2023-02-07T06:33:57.483Z,2.58
2023-02-07T06:36:24.185Z,2.38
2023-02-07T06:38:54.463Z,2.25
2023-02-07T06:41:21.990Z,2.78
2023-02-07T06:43:48.658Z,2.45
2023-02-07T06:46:15.374Z,2.50
2023-02-07T06:48:42.072Z,2.35
2023-02-07T06:51:08.888Z,2.38
2023-02-07T06:53:35.589Z,2.40
2023-02-07T06:56:02.266Z,2.55
2023-02-07T06:58:28.970Z,2.65
2023-02-07T07:00:55.674Z,2.35
2023-02-07T07:03:26.987Z,2.20
2023-02-07T07:05:54.012Z,2.28
2023-02-07T07:08:20.962Z,2.30
2023-02-07T07:10:47.611Z,2.20
2023-02-07T07:13:14.262Z,2.20
2023-02-07T07:15:41.076Z,2.20
2023-02-07T07:18:07.865Z,2.10
2023-02-07T07:20:34.511Z,2.30
2023-02-07T07:23:01.230Z,2.38
2023-02-07T07:25:27.930Z,2.40
2023-02-07T07:27:54.599Z,2.03
2023-02-07T07:30:21.644Z,2.20
2023-02-07T07:32:48.292Z,2.33
2023-02-07T07:35:14.950Z,2.10
2023-02-07T07:37:41.959Z,2.10
2023-02-07T07:40:09.439Z,2.00
2023-02-07T07:42:36.920Z,2.30
2023-02-07T07:45:20.049Z,2.00
2023-02-07T07:47:47.078Z,2.20
2023-02-07T07:50:13.746Z,2.40
2023-02-07T07:52:40.349Z,2.10
2023-02-07T07:55:07.548Z,1.90
2023-02-07T07:57:34.176Z,2.20
2023-02-07T08:00:00.855Z,2.03
2023-02-07T08:02:28.162Z,2.10
2023-02-07T08:04:54.886Z,2.20
2023-02-07T08:07:21.570Z,2.38
2023-02-07T08:09:48.357Z,2.20
2023-02-07T08:12:15.154Z,2.17
2023-02-07T08:14:41.814Z,1.98
2023-02-07T08:17:08.443Z,1.90
2023-02-07T08:19:35.277Z,2.03
2023-02-07T08:22:02.022Z,2.10
2023-02-07T08:24:28.765Z,2.35
2023-02-07T08:26:56.996Z,2.00
2023-02-07T08:29:23.676Z,1.98
2023-02-07T08:31:50.500Z,2.08
2023-02-07T08:34:18.746Z,1.90
2023-02-07T08:36:45.483Z,2.00
2023-02-07T08:39:12.190Z,2.00
2023-02-07T08:41:38.839Z,2.15
2023-02-07T08:44:05.693Z,2.13
2023-02-07T08:46:32.366Z,2.00
2023-02-07T08:48:59.055Z,2.20
2023-02-07T08:51:25.748Z,2.20
2023-02-07T08:53:53.410Z,1.88
2023-02-07T08:56:20.049Z,1.80
2023-02-07T08:58:46.876Z,2.00
2023-02-07T09:01:13.632Z,1.90
2023-02-07T09:03:40.451Z,2.20
2023-02-07T09:06:08.206Z,2.20
2023-02-07T09:08:34.889Z,2.20
2023-02-07T09:11:01.603Z,2.20
2023-02-07T09:13:28.183Z,2.35
2023-02-07T09:15:55.752Z,2.00
2023-02-07T09:18:22.973Z,2.35
2023-02-07T09:20:49.539Z,2.10
2023-02-07T09:23:22.224Z,1.77
2023-02-07T09:25:52.531Z,2.17
2023-02-07T09:28:19.523Z,1.90
2023-02-07T09:30:47.097Z,2.00
2023-02-07T09:33:14.530Z,2.25
2023-02-07T09:35:43.681Z,2.00
2023-02-07T09:38:13.652Z,2.17
2023-02-07T09:40:40.571Z,1.92
2023-02-07T09:43:13.288Z,2.00
2023-02-07T09:45:42.095Z,1.90
2023-02-07T09:48:22.114Z,2.10
2023-02-07T09:50:53.918Z,2.00
2023-02-07T09:53:24.835Z,2.20
2023-02-07T09:55:56.332Z,1.90
2023-02-07T09:59:05.304Z,1.90
2023-02-07T10:01:37.856Z,1.80
2023-02-07T10:04:22.738Z,2.20
2023-02-07T10:06:52.583Z,3.03
2023-02-07T10:09:28.300Z,2.83
2023-02-07T10:12:05.264Z,2.90
2023-02-07T10:14:38.847Z,2.90
2023-02-07T10:17:31.600Z,2.92
2023-02-07T10:20:19.652Z,2.67
2023-02-07T10:22:59.281Z,2.50
2023-02-07T10:25:33.912Z,2.58
2023-02-07T10:28:15.762Z,2.30
2023-02-07T10:30:50.841Z,2.28
2023-02-07T10:33:19.350Z,2.33
2023-02-07T10:35:46.462Z,2.20
2023-02-07T10:38:40.168Z,2.15
2023-02-07T10:41:10.977Z,2.03
2023-02-07T10:43:38.608Z,2.38
2023-02-07T10:46:06.907Z,2.10
2023-02-07T10:48:33.979Z,2.28
2023-02-07T10:51:01.740Z,2.20
2023-02-07T10:53:54.650Z,2.20
2023-02-07T10:58:51.433Z,2.17
2023-02-07T11:01:22.327Z,2.25
2023-02-07T11:03:49.062Z,2.10
2023-02-07T11:06:16.914Z,4.90
2023-02-07T11:08:43.631Z,3.60
2023-02-07T11:11:19.163Z,2.70
2023-02-07T11:13:48.539Z,2.53
2023-02-07T11:16:16.461Z,2.50
2023-02-07T11:18:47.054Z,2.50
2023-02-07T11:21:42.055Z,2.45
2023-02-07T11:24:17.000Z,2.45
2023-02-07T11:26:59.712Z,2.20
2023-02-07T11:29:26.334Z,5.43
2023-02-07T11:31:54.160Z,6.20
2023-02-07T11:34:42.482Z,5.72
2023-02-07T11:37:29.864Z,4.78
2023-02-07T11:40:16.022Z,4.80
2023-02-07T11:42:42.594Z,4.00
2023-02-07T11:45:15.114Z,3.83
2023-02-07T11:47:42.417Z,3.47
2023-02-07T11:50:11.634Z,3.97
2023-02-07T11:52:39.652Z,3.17
2023-02-07T11:55:08.093Z,3.22
2023-02-07T11:57:34.697Z,3.33
2023-02-07T12:00:20.152Z,2.90
2023-02-07T12:02:51.751Z,2.95
2023-02-07T12:05:22.223Z,3.00
2023-02-07T12:07:53.253Z,2.85
2023-02-07T12:10:29.381Z,2.72
2023-02-07T12:13:06.717Z,2.92
2023-02-07T12:15:42.447Z,2.90
2023-02-07T12:18:26.645Z,2.63
2023-02-07T12:21:12.395Z,2.88
2023-02-07T12:23:43.065Z,2.65
2023-02-07T12:26:24.747Z,2.70
2023-02-07T12:29:13.521Z,2.75
2023-02-07T12:31:57.428Z,2.40
2023-02-07T12:34:52.450Z,2.58
2023-02-07T12:37:34.059Z,2.60
2023-02-07T12:40:19.000Z,2.10
2023-02-07T12:42:51.426Z,2.50
2023-02-07T12:45:51.528Z,2.28
2023-02-07T12:48:36.920Z,2.25
2023-02-07T12:51:37.594Z,2.40
2023-02-07T12:54:31.519Z,2.50
2023-02-07T12:57:05.038Z,2.45
2023-02-07T12:59:59.123Z,2.50
2023-02-07T13:02:55.398Z,2.55
2023-02-07T13:05:47.055Z,2.70
2023-02-07T13:08:23.800Z,2.20
2023-02-07T13:10:50.217Z,2.35
2023-02-07T13:13:45.873Z,2.67
2023-02-07T13:16:31.453Z,2.30
2023-02-07T13:19:11.772Z,2.50
2023-02-07T13:21:47.453Z,2.22
2023-02-07T13:24:15.285Z,2.33
2023-02-07T13:26:42.134Z,2.30
2023-02-07T13:29:14.072Z,2.33
2023-02-07T13:32:12.600Z,2.30
2023-02-07T13:34:48.772Z,2.10
2023-02-07T13:37:17.289Z,2.25
2023-02-07T13:39:57.269Z,2.30
2023-02-07T13:42:36.248Z,2.45
2023-02-07T13:45:16.095Z,2.58
2023-02-07T13:47:46.711Z,2.10
2023-02-07T13:50:22.520Z,2.40
2023-02-07T13:52:57.555Z,2.33
2023-02-07T13:55:32.562Z,2.00
2023-02-07T13:58:17.758Z,2.60
2023-02-07T14:00:47.450Z,2.00
2023-02-07T14:03:28.702Z,2.08
2023-02-07T14:06:17.544Z,2.20
2023-02-07T14:08:44.271Z,2.40
2023-02-07T14:11:39.184Z,1.98
2023-02-07T14:14:12.946Z,2.25
2023-02-07T14:16:43.928Z,2.28
2023-02-07T14:19:12.400Z,2.50
2023-02-07T14:21:40.554Z,2.40
2023-02-07T14:24:17.900Z,2.00
2023-02-07T14:26:58.740Z,1.98
2023-02-07T14:29:25.343Z,2.50
2023-02-07T14:32:02.255Z,3.95
2023-02-07T14:34:32.856Z,4.47
2023-02-07T14:37:00.498Z,4.47
2023-02-07T14:39:31.490Z,3.90
2023-02-07T14:42:11.056Z,3.40
2023-02-07T14:44:38.881Z,3.00
2023-02-07T14:47:06.748Z,2.65
2023-02-07T14:49:39.261Z,2.95
2023-02-07T14:52:11.930Z,2.70
2023-02-07T14:54:47.485Z,2.78
2023-02-07T14:57:23.059Z,2.80
2023-02-07T15:00:04.989Z,2.90
2023-02-07T15:02:35.881Z,2.80
2023-02-07T15:05:16.857Z,2.50
2023-02-07T15:07:43.987Z,2.55
2023-02-07T15:10:25.092Z,2.50
2023-02-07T15:12:54.573Z,2.33
2023-02-07T15:15:47.274Z,2.75
2023-02-07T15:18:14.720Z,2.50
2023-02-07T15:20:41.621Z,2.50
2023-02-07T15:23:08.756Z,2.25
2023-02-07T15:25:35.602Z,2.50
2023-02-07T15:28:27.593Z,1.92
2023-02-07T15:31:09.406Z,2.30
2023-02-07T15:33:47.892Z,2.30
2023-02-07T15:36:37.312Z,2.30
2023-02-07T15:39:06.201Z,2.22
2023-02-07T15:41:33.090Z,2.40
2023-02-07T15:44:01.438Z,2.60
2023-02-07T15:46:44.150Z,2.20
2023-02-07T15:49:10.809Z,2.38
2023-02-07T15:51:40.561Z,2.08
2023-02-07T15:54:07.140Z,2.15
2023-02-07T15:56:33.709Z,2.20
2023-02-07T15:59:03.306Z,2.17
2023-02-07T16:01:30.814Z,2.42
2023-02-07T16:03:57.478Z,2.20
2023-02-07T16:06:24.709Z,2.20
2023-02-07T16:08:55.416Z,2.08
2023-02-07T16:11:31.093Z,2.30
2023-02-07T16:14:12.888Z,2.58
2023-02-07T16:16:53.172Z,2.42
2023-02-07T16:19:23.000Z,1.90
2023-02-07T16:22:06.968Z,2.13
2023-02-07T16:24:35.517Z,2.33
2023-02-07T16:27:02.220Z,2.13
2023-02-07T16:29:28.870Z,2.00
2023-02-07T16:31:55.696Z,2.13
2023-02-07T16:34:22.376Z,2.20
2023-02-07T16:36:53.712Z,2.17
2023-02-07T16:39:20.505Z,2.10
2023-02-07T16:41:52.385Z,2.17
2023-02-07T16:44:30.967Z,2.22
2023-02-07T16:46:57.769Z,2.00
2023-02-07T16:49:25.753Z,2.10
2023-02-07T16:51:52.571Z,1.92
2023-02-07T16:54:19.583Z,2.00
2023-02-07T16:56:47.391Z,1.90
2023-02-07T16:59:15.020Z,2.25
2023-02-07T17:01:41.570Z,2.03
2023-02-07T17:04:08.155Z,2.03
2023-02-07T17:06:34.784Z,2.28
2023-02-07T17:09:01.386Z,2.45
2023-02-07T17:11:28.021Z,2.30
2023-02-07T17:13:58.499Z,2.10
2023-02-07T17:16:26.004Z,2.00
2023-02-07T17:18:52.903Z,2.10
2023-02-07T17:21:22.092Z,2.20
2023-02-07T17:23:49.238Z,2.13
2023-02-07T17:26:27.446Z,2.05
2023-02-07T17:28:54.938Z,2.20
2023-02-07T17:31:25.799Z,2.17
2023-02-07T17:33:52.442Z,2.05
2023-02-07T17:36:19.903Z,2.13
2023-02-07T17:38:47.164Z,2.40
2023-02-07T17:41:14.386Z,2.63
2023-02-07T17:43:41.393Z,1.90
2023-02-07T17:46:27.481Z,2.33
2023-02-07T17:48:54.266Z,1.95
2023-02-07T17:51:25.170Z,2.08
2023-02-07T17:53:51.922Z,2.38
2023-02-07T17:56:26.351Z,2.25
2023-02-07T17:58:53.426Z,1.88
2023-02-07T18:01:20.284Z,5.60
2023-02-07T18:03:47.599Z,4.68
2023-02-07T18:06:15.224Z,3.13
2023-02-07T18:08:42.181Z,3.40
2023-02-07T18:11:14.215Z,21.67
2023-02-07T18:13:41.485Z,9.10
2023-02-07T18:16:08.411Z,6.60
2023-02-07T18:18:35.471Z,5.78
2023-02-07T18:21:03.320Z,5.32
2023-02-07T18:23:29.945Z,7.28
2023-02-07T18:25:56.739Z,5.55
2023-02-07T18:28:23.951Z,5.45
2023-02-07T18:30:51.314Z,5.75
2023-02-07T18:33:19.564Z,5.57
2023-02-07T18:35:46.602Z,5.45
2023-02-07T18:38:14.274Z,5.53
2023-02-07T18:40:41.377Z,5.60
2023-02-07T18:43:08.213Z,5.20
2023-02-07T18:45:36.606Z,5.50
2023-02-07T18:48:03.728Z,5.53
2023-02-07T18:50:30.405Z,4.80
2023-02-07T18:52:57.137Z,5.28
2023-02-07T18:55:23.860Z,5.18
2023-02-07T18:57:50.767Z,4.78
2023-02-07T19:00:17.601Z,4.65
2023-02-07T19:02:44.247Z,4.60
2023-02-07T19:05:10.930Z,4.70
2023-02-07T19:07:37.743Z,4.40
2023-02-07T19:10:04.418Z,4.55
2023-02-07T19:12:31.306Z,4.38
2023-02-07T19:14:58.024Z,4.60
2023-02-07T19:17:25.331Z,4.72
2023-02-07T19:19:52.622Z,4.45
2023-02-07T19:22:30.100Z,4.35
2023-02-07T19:25:01.747Z,4.00
2023-02-07T19:27:28.366Z,3.97
2023-02-07T19:29:55.023Z,4.30
2023-02-07T19:32:24.339Z,4.25
2023-02-07T19:34:51.082Z,4.40
2023-02-07T19:37:18.172Z,4.18
2023-02-07T19:39:46.241Z,4.15
2023-02-07T19:42:13.263Z,3.97
2023-02-07T19:44:40.075Z,3.72
2023-02-07T19:47:06.993Z,4.28
2023-02-07T19:49:35.270Z,3.70
2023-02-07T19:52:01.957Z,3.80
2023-02-07T19:54:28.641Z,3.88
2023-02-07T19:56:55.396Z,3.90
2023-02-07T19:59:22.307Z,4.13
2023-02-07T20:01:49.225Z,3.58
2023-02-07T20:04:16.419Z,3.83
2023-02-07T20:06:43.097Z,3.72
2023-02-07T20:09:09.713Z,3.70
2023-02-07T20:11:36.496Z,4.20
2023-02-07T20:14:03.930Z,3.38
2023-02-07T20:16:33.000Z,3.63
2023-02-07T20:19:00.209Z,3.58
2023-02-07T20:21:28.294Z,3.75
2023-02-07T20:23:55.508Z,3.70
2023-02-07T20:26:31.566Z,3.45
2023-02-07T20:29:03.590Z,3.83
2023-02-07T20:31:33.592Z,4.00
2023-02-07T20:34:02.367Z,3.10
2023-02-07T20:36:29.706Z,3.28
2023-02-07T20:38:57.295Z,3.47
2023-02-07T20:41:30.489Z,3.55
2023-02-07T20:43:58.049Z,3.65
2023-02-07T20:46:24.973Z,3.60
2023-02-07T20:48:56.264Z,3.30
2023-02-07T20:51:23.100Z,3.30
2023-02-07T20:53:49.826Z,3.70
2023-02-07T20:56:17.275Z,3.53
2023-02-07T20:58:46.809Z,3.88
2023-02-07T21:01:24.647Z,3.50
2023-02-07T21:03:52.407Z,3.35
2023-02-07T21:06:19.507Z,3.42
2023-02-07T21:08:46.542Z,3.33
2023-02-07T21:11:13.934Z,3.38
2023-02-07T21:13:41.532Z,3.40
2023-02-07T21:16:08.200Z,3.50
2023-02-07T21:18:35.025Z,3.78
2023-02-07T21:21:06.128Z,3.30
2023-02-07T21:23:32.797Z,3.58
2023-02-07T21:26:06.189Z,3.67
2023-02-07T21:28:33.313Z,3.65
2023-02-07T21:31:20.198Z,3.33
2023-02-07T21:33:47.458Z,3.50
2023-02-07T21:36:25.101Z,3.33
2023-02-07T21:38:52.502Z,3.60
2023-02-07T21:41:21.531Z,3.15
2023-02-07T21:43:48.255Z,3.22
2023-02-07T21:46:21.817Z,3.10
2023-02-07T21:48:53.246Z,3.30
2023-02-07T21:51:22.197Z,3.60
2023-02-07T21:53:49.709Z,3.22
2023-02-07T21:56:18.140Z,3.25
2023-02-07T21:58:44.850Z,3.40
2023-02-07T22:01:15.982Z,3.33
2023-02-07T22:03:44.079Z,2.92
2023-02-07T22:06:11.011Z,3.40
2023-02-07T22:08:38.430Z,3.28
2023-02-07T22:11:06.880Z,3.58
2023-02-07T22:13:33.816Z,3.38
2023-02-07T22:16:00.665Z,3.30
2023-02-07T22:18:27.429Z,3.38
2023-02-07T22:20:54.167Z,3.13
2023-02-07T22:23:21.008Z,3.30
2023-02-07T22:25:47.654Z,3.17
2023-02-07T22:28:14.400Z,3.00
